• Join FlightAware (Why Join?)
  • Login
  • US Flag 
08:37AM EDT


 

Airport Tracker/Info


-or-


 

Live Flight TrackerFlight Track Log ✈ EJA951 ✈ 19-Jul-2013 ✈ KPWK - KABQ

Flight Track Log - Related Links

Times and Time Zones

All times are in EDT time to prevent confusion due to time zone crossing. See the EJA951 flight status page for this flight to view local times or setup timezone preferences in your user account.

Time Position Orientation Groundspeed Altitude Reporting Facility
EDT Latitude Longitude Course Direction KTS MPH feet Rate Location/Type
10:42AM 42.1667 -87.8667 334° Northwest 191 220 4,000  Level Chicago TRACON
10:43AM 42.1667 -87.9667 270° West 236 272 4,000  Level Chicago TRACON
10:44AM 42.1667 -88.0333 270° West 240 276 4,000 540 Level Chicago TRACON
10:46AM 42.1681 -88.1614 271° West 242 278 5,400 1,320 Climbing Chicago Center
10:47AM 41.7676 -88.8606 250° West  Level FlightAware Approximate
10:47AM 42.1253 -88.2314 231° Southwest 262 302 7,400  Level Chicago Center
10:48AM 42.0489 -88.2978 213° Southwest 277 319 10,600 2,880 Climbing Chicago Center
10:49AM 42.0025 -88.3733 230° Southwest 281 323 13,400 2,460 Climbing Chicago Center
10:50AM 41.9747 -88.4644 248° West 268 308 15,700 1,560 Climbing Chicago Center
10:51AM 41.9189 -88.5481 228° Southwest 304 350 16,700 960 Climbing Chicago Center
10:52AM 41.8394 -88.6581 226° Southwest 341 392 17,700 1,020 Climbing Chicago Center
10:53AM 41.7697 -88.7600 227° Southwest 366 421 18,900 1,500 Climbing Chicago Center
10:54AM 41.7064 -88.8678 232° Southwest 371 427 20,900 2,040 Climbing Chicago Center
10:55AM 41.6486 -88.9692 233° Southwest 353 406 23,200 1,800 Climbing Chicago Center
10:56AM 41.5903 -89.0706 232° Southwest 347 399 24,700 900 Climbing Chicago Center
10:57AM 41.5733 -89.2378 262° West 386 444 25,100 720 Climbing Chicago Center
10:59AM 41.5311 -89.4881 257° West 410 472 26,700 780 Climbing Kansas City Center
11:00AM 41.5042 -89.6386 257° West 416 479 27,400 600 Climbing Kansas City Center
11:01AM 41.4764 -89.7956 257° West 430 495 28,000 540 Climbing Kansas City Center
11:02AM 41.4467 -89.9567 256° West 444 511 28,600 780 Climbing Kansas City Center
11:03AM 41.4172 -90.1194 256° West 451 519 29,700 1,200 Climbing Kansas City Center
11:04AM 41.3817 -90.3147 256° West 454 522 31,100 1,200 Climbing Kansas City Center
11:05AM 41.3514 -90.4778 256° West 456 525 32,300 1,200 Climbing Kansas City Center
11:06AM 41.3208 -90.6414 256° West 458 527 33,600 1,260 Climbing Kansas City Center
11:07AM 41.2894 -90.8056 256° West 459 528 35,000 1,380 Climbing Kansas City Center
11:08AM 41.2556 -90.9686 255° West 460 529 36,600 1,740 Climbing Kansas City Center
11:09AM 41.1978 -91.1547 248° West 456 525 38,600 1,500 Climbing Kansas City Center
11:10AM 41.1564 -91.2897 248° West 454 522 39,800 660 Climbing Kansas City Center
11:11AM 41.0969 -91.4789 247° West 464 534 40,000 60 Climbing Kansas City Center
11:12AM 41.0450 -91.6464 248° West 488 562 40,000  Level Kansas City Center
11:13AM 40.9903 -91.8183 247° West 506 582 40,000  Level Kansas City Center
11:14AM 40.9364 -91.9900 247° West 511 588 40,000  Level Kansas City Center
11:15AM 40.8808 -92.1619 247° West 513 590 40,000  Level Kansas City Center
11:16AM 40.8150 -92.3669 247° West 513 590 40,000  Level Kansas City Center
11:17AM 40.7592 -92.5381 247° West 514 592 40,000  Level Kansas City Center
11:19AM 40.7042 -92.7086 247° West 515 593 40,000  Level Kansas City Center
11:20AM 40.6472 -92.8803 246° West 519 597 40,000  Level Kansas City Center
11:21AM 40.5803 -93.0839 247° West 516 594 40,000  Level Kansas City Center
11:22AM 40.5250 -93.2547 247° West 516 594 40,000  Level Kansas City Center
11:23AM 40.4667 -93.4264 246° West 520 598 40,000 540 Level Kansas City Center
11:24AM 40.4086 -93.5967 246° West 519 597 41,200 1,200 Climbing Kansas City Center
11:25AM 40.3428 -93.7917 246° West 498 573 42,600 840 Climbing Kansas City Center
11:26AM 40.2869 -93.9564 246° West 493 567 43,000 180 Climbing Kansas City Center
11:27AM 40.2322 -94.1147 246° West 498 573 43,000  Level Kansas City Center
11:28AM 40.1653 -94.3006 245° Southwest 505 581 43,000  Level Kansas City Center
11:29AM 40.1092 -94.4631 246° West 511 588 43,000  Level Kansas City Center
11:30AM 40.0444 -94.6514 246° West 510 587 43,000  Level Kansas City Center
11:31AM 39.9881 -94.8122 245° Southwest 511 588 43,000  Level Kansas City Center
11:32AM 39.9219 -94.9986 245° Southwest 509 586 43,000  Level Kansas City Center
11:33AM 39.8653 -95.1594 245° Southwest 512 589 43,000  Level Kansas City Center
11:34AM 39.7989 -95.3447 245° Southwest 509 586 43,000  Level Kansas City Center
11:35AM 39.7414 -95.5047 245° Southwest 512 589 43,000  Level Kansas City Center
11:36AM 39.6750 -95.6911 245° Southwest 514 592 43,000  Level Kansas City Center
11:37AM 39.6147 -95.8508 244° Southwest 517 595 43,000  Level Kansas City Center
11:38AM 39.5469 -96.0372 245° Southwest 515 593 43,000  Level Kansas City Center
11:39AM 39.4914 -96.1858 244° Southwest 515 593 43,000  Level Kansas City Center
11:40AM 39.4289 -96.3528 244° Southwest 515 593 43,000  Level Kansas City Center
11:41AM 39.3581 -96.5425 244° Southwest 516 594 43,000  Level Kansas City Center
11:42AM 39.2886 -96.7283 244° Southwest 515 593 43,000  Level Kansas City Center
11:43AM 39.2281 -96.8878 244° Southwest 517 595 43,000  Level Kansas City Center
11:44AM 39.1572 -97.0742 244° Southwest 518 596 43,000  Level Kansas City Center
11:45AM 39.0975 -97.2347 244° Southwest 521 600 43,000  Level Kansas City Center
11:46AM 39.0269 -97.4186 244° Southwest 515 593 43,000  Level Kansas City Center
11:47AM 38.9653 -97.5772 243° Southwest 516 594 43,000  Level Kansas City Center
11:48AM 38.9019 -97.7350 243° Southwest 517 595 43,000  Level Kansas City Center
11:50AM 38.8344 -97.9119 244° Southwest 520 598 43,000  Level Kansas City Center
11:51AM 38.7706 -98.0769 244° Southwest 520 598 43,000  Level Kansas City Center
11:52AM 38.7061 -98.2403 243° Southwest 517 595 43,000  Level Kansas City Center
11:53AM 38.6272 -98.4378 243° Southwest 523 602 43,000  Level Kansas City Center
11:54AM 38.5631 -98.6014 243° Southwest 519 597 43,000  Level Kansas City Center
11:55AM 38.4967 -98.7644 243° Southwest 520 598 43,000  Level Kansas City Center
11:56AM 38.4308 -98.9278 243° Southwest 520 598 43,000  Level Kansas City Center
11:57AM 38.3647 -99.0922 243° Southwest 522 601 43,000  Level Kansas City Center
11:58AM 38.2864 -99.2875 243° Southwest 519 597 43,000  Level Kansas City Center
11:59AM 38.2169 -99.4503 242° Southwest 523 602 43,000  Level Kansas City Center
12:00PM 38.1467 -99.6244 243° Southwest 520 598 43,000  Level Kansas City Center
12:01PM 38.0811 -99.7808 242° Southwest 523 602 43,000  Level Kansas City Center
12:02PM 38.0047 -99.9619 242° Southwest 523 602 43,000  Level Kansas City Center
12:03PM 37.9397 -100.1181 242° Southwest 522 601 43,000  Level Kansas City Center
12:04PM 37.8622 -100.2994 242° Southwest 524 603 43,000  Level Kansas City Center
12:05PM 37.7964 -100.4539 242° Southwest 523 602 43,000  Level Kansas City Center
12:06PM 37.7258 -100.6186 242° Southwest 520 598 43,000  Level Kansas City Center
12:07PM 37.6564 -100.7778 241° Southwest 519 597 43,000  Level Kansas City Center
12:08PM 37.5825 -100.9481 241° Southwest 535 616 43,000  Level Kansas City Center
12:09PM 37.5131 -101.1100 242° Southwest 532 612 43,000  Level Kansas City Center
12:10PM 37.4350 -101.2939 242° Southwest 520 598 43,000  Level Kansas City Center
12:11PM 37.3669 -101.4481 241° Southwest 524 603 43,000  Level Kansas City Center
12:12PM 37.2892 -101.6250 241° Southwest 520 598 43,000  Level Kansas City Center
12:13PM 37.2206 -101.7800 241° Southwest 527 606 43,000  Level Kansas City Center
12:14PM 37.1422 -101.9592 241° Southwest 526 605 43,000  Level Kansas City Center
12:15PM 37.0733 -102.1119 241° Southwest 525 604 43,000  Level Kansas City Center
12:16PM 37.0164 -102.2397 241° Southwest 526 605 43,000  Level Albuquerque Center
12:17PM 36.9353 -102.4172 240° Southwest 527 606 43,000  Level Albuquerque Center
12:18PM 36.8706 -102.5642 241° Southwest 527 606 43,000  Level Albuquerque Center
12:19PM 36.7894 -102.7417 240° Southwest 526 605 43,000  Level Albuquerque Center
12:20PM 36.7181 -102.8947 240° Southwest 530 610 43,000  Level Albuquerque Center
12:21PM 36.6383 -103.0725 241° Southwest 528 608 43,000  Level Albuquerque Center
12:22PM 36.5692 -103.2236 240° Southwest 530 610 43,000  Level Albuquerque Center
12:23PM 36.4942 -103.3825 240° Southwest 530 610 43,000  Level Albuquerque Center
12:24PM 36.4200 -103.5428 240° Southwest 531 611 43,000  Level Albuquerque Center
12:25PM 36.3333 -103.7281 240° Southwest 529 609 43,000  Level Albuquerque Center
12:26PM 36.2594 -103.8872 240° Southwest 530 610 43,000  Level Albuquerque Center
12:27PM 36.1839 -104.0450 239° Southwest 529 609 43,000  Level Albuquerque Center
12:29PM 36.1086 -104.2000 239° Southwest 526 605 43,000  Level Albuquerque Center
12:30PM 36.0339 -104.3586 240° Southwest 529 609 43,000 -420 Level Albuquerque Center
12:31PM 35.9583 -104.5158 239° Southwest 530 610 42,200 -1,320 Descending Albuquerque Center
12:32PM 35.8686 -104.7017 239° Southwest 538 619 40,300 -1,560 Descending Albuquerque Center
12:33PM 35.7903 -104.8625 239° Southwest 543 625 39,000 -1,440 Descending Albuquerque Center
12:34PM 35.7114 -105.0233 239° Southwest 545 627 37,400 -1,560 Descending Albuquerque Center
12:35PM 35.6544 -105.1944 248° West 554 638 35,800 -1,620 Descending Albuquerque Center
12:36PM 35.6447 -105.3811 266° West 547 629 34,100 -1,620 Descending Albuquerque Center
12:37PM 35.6447 -105.5614 270° West 550 633 32,500 -1,680 Descending Albuquerque Center
12:38PM 35.6433 -105.7506 270° West 554 638 30,700 -2,820 Descending Albuquerque Center
12:39PM 35.6406 -105.9692 269° West 538 619 26,700 -4,200 Descending Albuquerque Center
12:40PM 35.6367 -106.1233 268° West 467 537 22,100 -3,840 Descending Albuquerque Center
12:41PM 35.6275 -106.2556 265° West 406 467 18,800 -2,040 Descending Albuquerque Center
12:42PM 35.6156 -106.3733 263° West 362 417 18,000 -1,020 Descending Albuquerque Center
12:43PM 35.5975 -106.5264 262° West 352 405 16,700 -1,080 Descending Albuquerque Center
12:44PM 35.5461 -106.6028 230° Southwest 330 380 15,800 -1,080 Descending Albuquerque Center
12:45PM 35.4619 -106.6489 204° Southwest 331 381 14,700 -1,440 Descending Albuquerque Center
12:46PM 35.3783 -106.6931 203° Southwest 328 377 12,900 -1,800 Descending Albuquerque Center
12:47PM 35.2997 -106.7339 203° Southwest 314 361 11,000 -1,440 Descending Albuquerque Center
12:48PM 35.2128 -106.7667 197° South 277 319 10,000 -540 Descending Albuquerque Center
12:49PM 35.1444 -106.7919 197° South 243 280 10,000  Level Albuquerque Center
12:50PM 35.0822 -106.8131 196° South 252 290 10,000  Level Albuquerque Center
12:51PM 35.0161 -106.8378 197° South 253 291 10,000  Level Albuquerque Center
12:52PM 34.9494 -106.8600 195° South 250 288 10,000 -660 Level Albuquerque Center
12:53PM 34.8944 -106.8250 152° Southeast 215 247 8,700 -1,020 Descending Albuquerque Center
12:54PM 34.9136 -106.7631 69° East 211 243 8,000 -780 Descending Albuquerque Center
12:55PM 34.9556 -106.7108 46° Northeast 212 244 7,200 -900 Descending Albuquerque Center
12:56PM 34.9908 -106.6681 45° Northeast 181 208 6,200 -780 Descending Albuquerque Center
12:57PM 35.0317 -106.6186 45° Northeast 183 211 5,400 -660 Descending Albuquerque Center